Terminal Aerodrome Forecast
Issued by NWS

Home | Current Version | Previous Version | Graphics & Text | Print | Product List | Glossary On
Versions: 1 2 3 4 5 6 7 8 9 10 11 12 13 14 15 16 17 18 19 20 21 22 23 24 25 26 27 28 29 30 31 32 33 34 35 36 37 38 39 40 41 42 43 44 45 46 47 48 49 50
060
FTUS43 KLOT 160300 AAA
TAFGYY
TAF AMD
KGYY 160300Z 1603/1624 VRB03KT P6SM OVC120
     FM160900 12004KT P6SM VCSH SCT015 OVC025
      TEMPO 1609/1610 5SM -FZRAPL OVC015
     FM161000 11005KT 3SM -FZRA BR OVC008
     FM161400 11007KT 3SM -RA BR OVC005
     FM161900 09008KT 2SM -SHRA BR OVC004
     FM162100 09010KT 1 1/2SM -RA BR OVC003=

USA.gov is the U.S. government's official web portal to all federal, state and local government web resources and services.